Time;durP1;ratioP1;P1;durP2;ratioP2;P2;SDS_P1;SDS_P2;PMS_P1;PMS_P2;Temp;Humidity;BMP_temperature;BMP_pressure;BME280_temperature;BME280_humidity;BME280_pressure;Samples;Min_cycle;Max_cycle;Signal;HPM_P1;HPM_P2
2022/09/24 00:01:32;;;;;;;5.20;4.37;;;13.30;99.90;;;;;;5057347;28;20460;-52
2022/09/24 00:04:01;;;;;;;5.97;4.67;;;13.30;99.90;;;;;;5056973;28;20425;-52
2022/09/24 00:06:30;;;;;;;7.83;4.47;;;13.30;99.90;;;;;;5056302;28;20511;-52
2022/09/24 00:08:57;;;;;;;4.97;4.47;;;13.30;99.90;;;;;;5056218;28;20441;-50
2022/09/24 00:11:27;;;;;;;7.70;4.43;;;13.20;99.90;;;;;;5056626;28;20466;-55
2022/09/24 00:13:56;;;;;;;5.63;4.40;;;13.20;99.90;;;;;;5056691;28;20425;-54
2022/09/24 00:16:25;;;;;;;6.00;4.93;;;13.20;99.90;;;;;;5056689;28;20468;-51
2022/09/24 00:18:54;;;;;;;5.07;4.57;;;13.20;99.90;;;;;;5056649;28;20464;-55
2022/09/24 00:21:22;;;;;;;6.57;4.77;;;13.10;99.90;;;;;;5056824;28;20475;-52
2022/09/24 00:23:51;;;;;;;4.90;4.40;;;13.10;99.90;;;;;;5056287;28;20424;-49
2022/09/24 00:29:03;;;;;;;6.07;4.60;;;13.00;99.90;;;;;;5056608;28;20400;-50
2022/09/24 00:31:30;;;;;;;5.87;4.23;;;13.00;99.90;;;;;;5056699;28;20456;-51
2022/09/24 00:34:01;;;;;;;5.90;4.60;;;13.00;99.90;;;;;;5056643;28;20501;-50
2022/09/24 00:36:28;;;;;;;4.47;4.03;;;12.90;99.90;;;;;;5056326;28;20495;-52
2022/09/24 00:38:57;;;;;;;6.23;4.83;;;13.00;99.90;;;;;;5057927;28;20474;-50
2022/09/24 00:41:26;;;;;;;6.90;5.40;;;12.90;99.90;;;;;;5060196;28;20460;-53
2022/09/24 00:43:53;;;;;;;8.73;4.67;;;12.90;99.90;;;;;;5060815;28;20511;-54
2022/09/24 00:46:25;;;;;;;5.13;4.30;;;12.90;99.90;;;;;;5060614;28;20478;-48
2022/09/24 00:48:56;;;;;;;4.67;3.97;;;12.90;99.90;;;;;;5059702;28;20435;-58
2022/09/24 00:51:26;;;;;;;8.40;4.70;;;12.90;99.90;;;;;;5060226;28;20460;-52
2022/09/24 00:53:56;;;;;;;6.07;4.20;;;12.90;99.90;;;;;;5059908;28;20432;-51
2022/09/24 00:56:24;;;;;;;5.20;4.70;;;12.90;99.90;;;;;;5060027;28;20533;-51
2022/09/24 00:58:55;;;;;;;6.60;4.63;;;12.90;99.90;;;;;;5060085;28;20574;-50
2022/09/24 01:01:23;;;;;;;5.37;4.47;;;12.90;99.90;;;;;;5059393;28;20781;-49
2022/09/24 01:03:52;;;;;;;9.00;4.70;;;12.90;99.90;;;;;;5059825;28;20427;-49
2022/09/24 01:06:19;;;;;;;4.80;4.20;;;12.80;99.90;;;;;;5059647;28;20532;-56
2022/09/24 01:08:47;;;;;;;6.67;4.63;;;12.80;99.90;;;;;;5059203;28;20479;-54
2022/09/24 01:11:29;;;;;;;5.30;4.80;;;12.80;99.90;;;;;;5059024;28;20493;-53
2022/09/24 01:14:13;;;;;;;7.00;5.27;;;12.80;99.90;;;;;;5059462;28;20432;-51
2022/09/24 01:16:46;;;;;;;4.60;3.93;;;12.80;99.90;;;;;;5059399;28;20487;-51
2022/09/24 01:19:33;;;;;;;7.83;5.60;;;12.80;99.90;;;;;;5059024;28;20470;-51
2022/09/24 01:22:03;;;;;;;6.00;5.30;;;12.80;99.90;;;;;;5058981;28;20447;-54
2022/09/24 01:24:58;;;;;;;5.27;4.73;;;12.80;99.90;;;;;;5059240;28;20424;-51
2022/09/24 01:27:41;;;;;;;8.23;5.47;;;12.80;99.90;;;;;;5058878;28;20471;-49
2022/09/24 01:30:11;;;;;;;5.57;4.30;;;12.70;99.90;;;;;;5058706;28;20459;-52
2022/09/24 01:32:43;;;;;;;10.03;5.53;;;12.80;99.90;;;;;;5059004;28;20507;-50
2022/09/24 01:35:15;;;;;;;6.63;5.13;;;12.80;99.90;;;;;;5058546;28;20474;-50
2022/09/24 01:37:46;;;;;;;6.60;4.70;;;12.70;99.90;;;;;;5058667;28;20423;-50
2022/09/24 01:40:14;;;;;;;7.13;5.90;;;12.70;99.90;;;;;;5058527;28;20432;-48
2022/09/24 01:42:45;;;;;;;6.63;4.77;;;12.70;99.90;;;;;;5058453;28;20530;-51
2022/09/24 01:45:16;;;;;;;4.60;3.60;;;12.80;99.90;;;;;;5058101;28;20443;-49
2022/09/24 01:47:45;;;;;;;6.77;4.67;;;12.70;99.90;;;;;;5058949;28;20447;-50
2022/09/24 01:50:15;;;;;;;5.90;4.93;;;12.70;99.90;;;;;;5057811;28;20531;-50
2022/09/24 01:52:46;;;;;;;6.47;5.10;;;12.80;99.90;;;;;;5058847;28;20448;-51
2022/09/24 01:55:17;;;;;;;6.37;5.10;;;12.70;99.90;;;;;;5058596;28;20451;-56
2022/09/24 01:57:49;;;;;;;10.70;5.43;;;12.70;99.90;;;;;;5058745;28;20451;-55
2022/09/24 02:00:20;;;;;;;5.97;5.20;;;12.80;99.90;;;;;;5058902;28;20424;-52
2022/09/24 02:02:51;;;;;;;10.10;5.17;;;12.70;99.90;;;;;;5058181;28;20456;-54
2022/09/24 02:05:25;;;;;;;9.80;5.67;;;12.70;99.90;;;;;;5058424;28;20488;-54
2022/09/24 02:07:58;;;;;;;6.43;5.23;;;12.70;99.90;;;;;;5058172;28;20431;-50
2022/09/24 02:10:30;;;;;;;7.70;6.20;;;12.80;99.90;;;;;;5058023;28;20499;-54
2022/09/24 02:13:01;;;;;;;6.50;4.67;;;12.80;99.90;;;;;;5057998;28;20508;-53
2022/09/24 02:15:33;;;;;;;6.40;4.77;;;12.80;99.90;;;;;;5057936;28;20412;-55
2022/09/24 02:18:06;;;;;;;6.40;4.67;;;12.80;99.90;;;;;;5058909;28;20452;-53
2022/09/24 02:20:36;;;;;;;6.00;5.00;;;12.80;99.90;;;;;;5058957;28;20436;-53
2022/09/24 02:23:09;;;;;;;7.30;5.27;;;12.80;99.90;;;;;;5059044;28;20452;-55
2022/09/24 02:25:42;;;;;;;6.83;4.60;;;12.80;99.90;;;;;;5059130;28;20429;-52
2022/09/24 02:28:09;;;;;;;4.73;4.27;;;12.70;99.90;;;;;;5058913;28;20444;-50
2022/09/24 02:30:43;;;;;;;6.37;5.30;;;12.70;99.90;;;;;;5058693;28;20472;-51
2022/09/24 02:35:54;;;;;;;8.30;4.73;;;12.70;99.90;;;;;;5058237;28;20792;-51
2022/09/24 02:38:22;;;;;;;6.13;4.47;;;12.70;99.90;;;;;;5058574;28;20619;-51
2022/09/24 02:40:50;;;;;;;6.10;5.50;;;12.80;99.90;;;;;;5058561;28;20440;-54
2022/09/24 02:43:19;;;;;;;7.90;5.37;;;12.80;99.90;;;;;;5058463;28;20441;-54
2022/09/24 02:45:48;;;;;;;5.90;4.30;;;12.80;99.90;;;;;;5058779;28;20462;-55
2022/09/24 02:48:14;;;;;;;5.50;5.00;;;12.70;99.90;;;;;;5057839;28;20455;-52
2022/09/24 02:50:41;;;;;;;7.10;5.30;;;12.70;99.90;;;;;;5057583;28;20457;-52
2022/09/24 02:53:08;;;;;;;6.80;5.10;;;12.70;99.90;;;;;;5057563;28;20432;-51
2022/09/24 02:55:37;;;;;;;9.07;4.73;;;12.70;99.90;;;;;;5057639;28;20443;-47
2022/09/24 02:58:04;;;;;;;4.20;3.80;;;12.70;99.90;;;;;;5057820;28;20471;-50
2022/09/24 03:00:41;;;;;;;9.50;5.10;;;12.70;99.90;;;;;;5058421;28;20479;-48
2022/09/24 03:03:09;;;;;;;7.40;5.40;;;12.70;99.90;;;;;;5056989;28;20460;-54
2022/09/24 03:05:36;;;;;;;7.27;5.77;;;12.70;99.90;;;;;;5058279;28;20460;-45
2022/09/24 03:08:06;;;;;;;6.07;4.57;;;12.70;99.90;;;;;;5058409;28;20526;-59
2022/09/24 03:10:33;;;;;;;6.80;5.20;;;12.60;99.90;;;;;;5058399;28;20432;-57
2022/09/24 03:13:00;;;;;;;5.17;4.67;;;12.60;99.90;;;;;;5057234;28;20427;-53
2022/09/24 03:15:28;;;;;;;8.20;5.67;;;12.60;99.90;;;;;;5056992;28;20448;-63
2022/09/24 03:17:55;;;;;;;7.03;5.27;;;12.60;99.90;;;;;;5057226;28;20468;-55
2022/09/24 03:20:24;;;;;;;6.00;5.00;;;12.60;99.90;;;;;;5056655;28;20471;-52
2022/09/24 03:22:51;;;;;;;5.67;4.90;;;12.60;99.90;;;;;;5057192;28;20456;-55
2022/09/24 03:25:19;;;;;;;6.33;4.87;;;12.60;99.90;;;;;;5057235;28;20647;-51
2022/09/24 03:27:57;;;;;;;6.30;4.70;;;12.50;99.90;;;;;;5057648;28;20494;-54
2022/09/24 03:33:08;;;;;;;7.20;5.23;;;12.50;99.90;;;;;;5056634;28;20470;-51
2022/09/24 03:35:36;;;;;;;6.40;4.50;;;12.50;99.90;;;;;;5057009;28;20481;-55
2022/09/24 03:38:06;;;;;;;7.10;5.30;;;12.50;99.90;;;;;;5056656;28;20479;-51
2022/09/24 03:40:33;;;;;;;9.80;4.53;;;12.50;99.90;;;;;;5056248;28;20511;-51
2022/09/24 03:43:00;;;;;;;5.50;4.33;;;12.50;99.90;;;;;;5056036;28;20490;-58
2022/09/24 03:45:27;;;;;;;7.53;5.60;;;12.50;99.90;;;;;;5056447;28;20448;-51
2022/09/24 03:47:54;;;;;;;7.43;5.27;;;12.60;99.90;;;;;;5055621;28;20563;-55
2022/09/24 03:50:21;;;;;;;10.40;5.90;;;12.60;99.90;;;;;;5056302;28;20468;-53
2022/09/24 03:52:49;;;;;;;6.93;5.07;;;12.60;99.90;;;;;;5056196;28;20492;-49
2022/09/24 03:55:16;;;;;;;5.20;4.70;;;12.60;99.90;;;;;;5056018;28;20657;-47
2022/09/24 03:57:43;;;;;;;6.40;4.83;;;12.60;99.90;;;;;;5056086;28;20487;-52
2022/09/24 04:00:11;;;;;;;8.90;5.07;;;12.60;99.90;;;;;;5055876;28;20484;-53
2022/09/24 04:02:39;;;;;;;7.63;5.00;;;12.60;99.90;;;;;;5056377;28;20524;-54
2022/09/24 04:05:07;;;;;;;6.03;4.93;;;12.60;99.90;;;;;;5055933;28;20459;-51
2022/09/24 04:07:34;;;;;;;9.87;5.57;;;12.60;99.90;;;;;;5056062;28;20448;-52
2022/09/24 04:10:02;;;;;;;6.70;5.27;;;12.50;99.90;;;;;;5056009;28;20424;-51
2022/09/24 04:12:30;;;;;;;6.47;4.60;;;12.50;99.90;;;;;;5056046;28;20496;-52
2022/09/24 04:14:57;;;;;;;6.27;4.63;;;12.50;99.90;;;;;;5055725;28;20500;-52
2022/09/24 04:17:30;;;;;;;6.00;4.90;;;12.50;99.90;;;;;;5055510;28;20472;-53
2022/09/24 04:19:56;;;;;;;6.37;5.00;;;12.50;99.90;;;;;;5055843;28;20464;-50
2022/09/24 04:22:24;;;;;;;9.73;5.07;;;12.50;99.90;;;;;;5055945;28;20524;-47
2022/09/24 04:24:54;;;;;;;6.50;5.40;;;12.50;99.90;;;;;;5056292;28;20436;-52
2022/09/24 04:27:27;;;;;;;6.77;5.30;;;12.50;99.90;;;;;;5055872;28;20491;-49
2022/09/24 04:29:54;;;;;;;6.67;4.80;;;12.60;99.90;;;;;;5055661;28;20437;-54
2022/09/24 04:32:21;;;;;;;7.17;4.63;;;12.60;99.90;;;;;;5055452;28;20475;-54
2022/09/24 04:34:48;;;;;;;5.97;5.13;;;12.50;99.90;;;;;;5055937;28;20483;-53
2022/09/24 04:37:15;;;;;;;6.20;5.60;;;12.50;99.90;;;;;;5055988;28;20464;-49
2022/09/24 04:39:48;;;;;;;7.60;5.00;;;12.50;99.90;;;;;;5056628;28;20468;-54
2022/09/24 04:42:17;;;;;;;5.53;4.60;;;12.50;99.90;;;;;;5056339;28;20452;-50
2022/09/24 04:44:48;;;;;;;5.57;4.73;;;12.50;99.90;;;;;;5056243;28;20428;-55
2022/09/24 04:47:15;;;;;;;7.20;5.93;;;12.40;99.90;;;;;;5056160;28;20492;-54
2022/09/24 04:49:44;;;;;;;7.33;5.10;;;12.40;99.90;;;;;;5056242;28;20484;-54
2022/09/24 04:52:13;;;;;;;7.53;4.97;;;12.40;99.90;;;;;;5056630;28;20452;-57
2022/09/24 04:54:40;;;;;;;6.63;4.83;;;12.40;99.90;;;;;;5056664;28;20468;-57
2022/09/24 04:57:07;;;;;;;9.70;5.43;;;12.40;99.90;;;;;;5056551;28;20434;-52
2022/09/24 04:59:34;;;;;;;7.50;5.00;;;12.40;99.90;;;;;;5056491;28;20468;-61
2022/09/24 05:02:02;;;;;;;8.27;5.50;;;12.40;99.90;;;;;;5055572;28;20467;-53
2022/09/24 05:04:31;;;;;;;6.20;5.07;;;12.40;99.90;;;;;;5056005;28;20466;-48
2022/09/24 05:06:57;;;;;;;5.33;4.43;;;12.40;99.90;;;;;;5055407;28;20503;-51
2022/09/24 05:09:24;;;;;;;6.23;5.20;;;12.40;99.90;;;;;;5054774;28;20436;-51
2022/09/24 05:11:51;;;;;;;10.23;4.90;;;12.40;99.90;;;;;;5055748;28;20450;-54
2022/09/24 05:14:18;;;;;;;6.10;5.07;;;12.40;99.90;;;;;;5054994;28;20459;-52
2022/09/24 05:16:45;;;;;;;7.07;5.20;;;12.40;99.90;;;;;;5055410;28;20451;-52
2022/09/24 05:19:13;;;;;;;6.23;5.63;;;12.40;99.90;;;;;;5055195;28;20468;-51
2022/09/24 05:21:43;;;;;;;6.70;4.57;;;12.40;99.90;;;;;;5055373;28;20444;-51
2022/09/24 05:24:10;;;;;;;6.33;5.63;;;12.40;99.90;;;;;;5055346;28;20429;-52
2022/09/24 05:29:21;;;;;;;5.60;4.80;;;12.50;99.90;;;;;;5058893;28;20479;-53
2022/09/24 05:31:48;;;;;;;6.47;4.80;;;12.50;99.90;;;;;;5059090;28;20859;-52
2022/09/24 05:34:16;;;;;;;6.97;5.53;;;12.60;99.90;;;;;;5058654;28;20435;-50
2022/09/24 05:36:43;;;;;;;7.63;5.67;;;12.50;99.90;;;;;;5059367;28;20484;-50
2022/09/24 05:39:14;;;;;;;4.80;4.43;;;12.60;99.90;;;;;;5058557;28;20454;-53
2022/09/24 05:41:43;;;;;;;5.97;5.10;;;12.60;99.90;;;;;;5058490;28;20454;-52
2022/09/24 05:44:10;;;;;;;9.03;5.73;;;12.60;99.90;;;;;;5058581;28;20487;-55
2022/09/24 05:46:43;;;;;;;6.27;4.80;;;12.60;99.90;;;;;;5059035;28;20471;-50
2022/09/24 05:49:13;;;;;;;6.70;5.30;;;12.50;99.90;;;;;;5058721;28;20483;-51
2022/09/24 05:51:44;;;;;;;4.70;4.13;;;12.70;99.90;;;;;;5058183;28;20464;-50
2022/09/24 05:54:11;;;;;;;6.50;4.87;;;12.70;99.90;;;;;;5058455;28;20502;-56
2022/09/24 05:56:38;;;;;;;6.83;6.00;;;12.70;99.90;;;;;;5058402;28;20462;-52
2022/09/24 05:59:06;;;;;;;5.77;4.90;;;12.70;99.90;;;;;;5058363;28;20475;-53
2022/09/24 06:01:32;;;;;;;8.77;5.47;;;12.70;99.90;;;;;;5058364;28;20461;-55
2022/09/24 06:03:59;;;;;;;7.97;5.33;;;12.70;99.90;;;;;;5058201;28;20444;-53
2022/09/24 06:06:26;;;;;;;6.93;4.77;;;12.70;99.90;;;;;;5058684;28;20535;-50
2022/09/24 06:08:55;;;;;;;6.60;5.30;;;12.70;99.90;;;;;;5057886;28;20460;-51
2022/09/24 06:11:23;;;;;;;6.23;4.93;;;12.70;99.90;;;;;;5058008;28;20458;-56
2022/09/24 06:13:52;;;;;;;5.87;5.07;;;12.70;99.90;;;;;;5057765;28;20972;-52
2022/09/24 06:16:19;;;;;;;6.90;5.60;;;12.80;99.90;;;;;;5057732;28;20437;-55
2022/09/24 06:18:46;;;;;;;7.27;5.00;;;12.80;99.90;;;;;;5058035;28;20468;-52
2022/09/24 06:21:16;;;;;;;6.47;5.27;;;12.80;99.90;;;;;;5058039;28;20540;-54
2022/09/24 06:23:44;;;;;;;6.63;5.37;;;12.80;99.90;;;;;;5058048;28;20457;-54
2022/09/24 06:26:13;;;;;;;5.97;5.30;;;12.80;99.90;;;;;;5058506;28;20444;-55
2022/09/24 06:28:41;;;;;;;6.03;5.43;;;12.80;99.90;;;;;;5057819;28;20452;-52
2022/09/24 06:31:11;;;;;;;5.67;5.07;;;12.90;99.90;;;;;;5058523;28;20512;-53
2022/09/24 06:33:39;;;;;;;9.10;5.50;;;12.90;99.90;;;;;;5058237;28;20495;-53
2022/09/24 06:36:06;;;;;;;8.83;5.00;;;13.00;99.90;;;;;;5057684;28;20448;-54
2022/09/24 06:38:34;;;;;;;7.40;5.23;;;13.10;99.90;;;;;;5057504;28;20472;-52
2022/09/24 06:41:03;;;;;;;6.23;5.43;;;13.10;99.90;;;;;;5057393;28;20484;-54
2022/09/24 06:43:31;;;;;;;5.83;5.00;;;13.10;99.90;;;;;;5057785;28;20475;-53
2022/09/24 06:45:59;;;;;;;6.00;5.27;;;13.20;99.90;;;;;;5057721;28;20421;-53
2022/09/24 06:48:27;;;;;;;8.20;5.83;;;13.20;99.90;;;;;;5057247;28;20465;-56
2022/09/24 06:50:55;;;;;;;6.37;5.53;;;13.30;99.90;;;;;;5057491;28;20440;-55
2022/09/24 06:53:22;;;;;;;6.47;5.50;;;13.40;99.90;;;;;;5057224;28;20468;-54
2022/09/24 06:55:48;;;;;;;6.80;4.80;;;13.40;99.90;;;;;;5057770;28;20424;-52
2022/09/24 06:58:18;;;;;;;9.00;6.20;;;13.50;99.90;;;;;;5058382;28;20447;-50
2022/09/24 07:00:53;;;;;;;6.47;5.37;;;13.50;99.90;;;;;;5058009;28;20455;-50
2022/09/24 07:03:20;;;;;;;6.23;5.20;;;13.50;99.90;;;;;;5057819;28;20458;-53
2022/09/24 07:05:47;;;;;;;8.30;5.90;;;13.50;99.90;;;;;;5057753;28;20449;-46
2022/09/24 07:08:14;;;;;;;6.20;5.60;;;13.50;99.90;;;;;;5057644;28;20452;-49
2022/09/24 07:10:42;;;;;;;12.90;5.77;;;13.50;99.90;;;;;;5057469;28;20425;-51
2022/09/24 07:13:13;;;;;;;6.00;5.47;;;13.50;99.90;;;;;;5056989;28;20454;-49
2022/09/24 07:15:40;;;;;;;6.60;5.50;;;13.60;99.90;;;;;;5057185;28;20408;-53
2022/09/24 07:18:09;;;;;;;6.77;5.63;;;13.60;99.90;;;;;;5056532;28;20436;-51
2022/09/24 07:20:36;;;;;;;5.83;4.80;;;13.60;99.90;;;;;;5057538;28;20539;-51
2022/09/24 07:23:04;;;;;;;8.17;4.90;;;13.60;99.90;;;;;;5056865;28;20428;-51
2022/09/24 07:25:31;;;;;;;6.90;5.07;;;13.70;99.90;;;;;;5056079;28;20448;-52
2022/09/24 07:28:01;;;;;;;6.47;5.43;;;13.70;99.90;;;;;;5056514;28;20450;-52
2022/09/24 07:30:28;;;;;;;5.90;5.23;;;13.80;99.90;;;;;;5056369;28;20420;-52
2022/09/24 07:32:55;;;;;;;9.87;6.20;;;13.90;99.90;;;;;;5056815;28;20450;-48
2022/09/24 07:35:24;;;;;;;9.40;5.57;;;13.90;99.90;;;;;;5056451;28;20500;-50
2022/09/24 07:38:00;;;;;;;6.33;5.50;;;14.00;99.90;;;;;;5056112;28;20459;-49
2022/09/24 07:40:32;;;;;;;8.17;5.67;;;14.00;99.90;;;;;;5055967;28;20500;-51
2022/09/24 07:42:59;;;;;;;8.33;6.03;;;14.10;99.90;;;;;;5056025;28;20435;-51
2022/09/24 07:45:28;;;;;;;8.70;5.17;;;14.10;99.90;;;;;;5055956;28;20455;-52
2022/09/24 07:47:59;;;;;;;8.00;6.90;;;14.10;99.90;;;;;;5055879;28;20475;-48
2022/09/24 07:50:29;;;;;;;9.50;5.60;;;14.10;99.90;;;;;;5056390;28;20479;-50
2022/09/24 07:52:56;;;;;;;7.40;4.93;;;14.10;99.90;;;;;;5056403;28;20432;-48
2022/09/24 07:55:25;;;;;;;7.80;5.33;;;14.10;99.90;;;;;;5056750;28;20454;-51
2022/09/24 07:57:54;;;;;;;9.43;5.90;;;14.10;99.90;;;;;;5056942;28;21000;-54
2022/09/24 08:00:22;;;;;;;7.27;5.60;;;14.10;99.90;;;;;;5056359;28;20524;-57
2022/09/24 08:02:50;;;;;;;9.07;5.67;;;14.20;99.90;;;;;;5056156;28;20474;-52
2022/09/24 08:05:17;;;;;;;8.80;6.00;;;14.20;99.90;;;;;;5056436;28;20424;-54
2022/09/24 08:07:52;;;;;;;7.87;5.67;;;14.20;99.90;;;;;;5056413;28;20432;-53
2022/09/24 08:10:19;;;;;;;8.50;6.50;;;14.20;99.90;;;;;;5055950;28;20494;-53
2022/09/24 08:12:46;;;;;;;6.23;5.30;;;14.20;99.90;;;;;;5056186;28;20448;-52
2022/09/24 08:15:13;;;;;;;6.87;5.67;;;14.30;99.90;;;;;;5055981;28;20468;-55
2022/09/24 08:17:40;;;;;;;7.07;6.00;;;14.40;99.90;;;;;;5056505;28;20475;-52
2022/09/24 08:20:07;;;;;;;9.23;6.00;;;14.40;99.90;;;;;;5055877;28;20476;-54
2022/09/24 08:22:34;;;;;;;6.90;6.20;;;14.50;99.90;;;;;;5056809;28;20440;-58
2022/09/24 08:25:03;;;;;;;14.10;6.93;;;14.50;99.90;;;;;;5056636;28;20491;-58
2022/09/24 08:27:31;;;;;;;12.63;5.87;;;14.60;99.90;;;;;;5056675;28;20451;-49
2022/09/24 08:29:59;;;;;;;8.03;6.30;;;14.70;99.90;;;;;;5056731;28;20527;-56
2022/09/24 08:32:26;;;;;;;9.17;5.87;;;14.70;99.90;;;;;;5056515;28;20436;-52
2022/09/24 08:34:52;;;;;;;7.23;6.10;;;14.70;99.90;;;;;;5056308;28;20482;-52
2022/09/24 08:37:19;;;;;;;9.40;5.47;;;14.70;99.90;;;;;;5056123;28;20451;-53
2022/09/24 08:39:46;;;;;;;8.50;6.23;;;14.70;99.90;;;;;;5056889;28;20470;-50
2022/09/24 08:42:28;;;;;;;7.77;6.20;;;14.80;99.90;;;;;;5056262;28;20519;-50
2022/09/24 08:47:47;;;;;;;7.10;6.40;;;15.00;99.90;;;;;;5056601;28;20416;-51
2022/09/24 08:50:16;;;;;;;7.47;6.47;;;15.20;99.90;;;;;;5056503;28;20484;-55
2022/09/24 08:53:03;;;;;;;7.03;6.33;;;15.30;99.90;;;;;;5057112;28;20503;-61
2022/09/24 08:55:35;;;;;;;8.17;5.70;;;15.40;99.90;;;;;;5056390;28;20535;-52
2022/09/24 08:58:17;;;;;;;7.40;6.60;;;15.60;99.90;;;;;;5056422;28;20428;-55
2022/09/24 09:00:49;;;;;;;9.40;6.90;;;15.80;99.90;;;;;;5057856;28;20563;-58
2022/09/24 09:03:24;;;;;;;8.30;6.20;;;15.90;99.90;;;;;;5061086;28;20436;-51
2022/09/24 09:05:56;;;;;;;10.60;7.67;;;16.00;99.90;;;;;;5060324;28;20474;-55
2022/09/24 09:08:33;;;;;;;10.67;6.17;;;16.00;99.90;;;;;;5060039;28;20435;-53
2022/09/24 09:11:03;;;;;;;9.87;6.73;;;16.10;99.90;;;;;;5059502;28;20408;-49
2022/09/24 09:13:36;;;;;;;8.17;6.23;;;16.20;99.90;;;;;;5059480;28;20503;-53
2022/09/24 09:16:06;;;;;;;7.20;5.60;;;16.20;99.90;;;;;;5060046;28;20444;-52
2022/09/24 09:18:37;;;;;;;9.40;6.67;;;16.10;99.90;;;;;;5060213;28;20500;-57
2022/09/24 09:21:13;;;;;;;6.67;6.07;;;16.10;99.90;;;;;;5060214;28;20480;-53
2022/09/24 09:23:47;;;;;;;10.20;6.20;;;16.00;99.90;;;;;;5059013;28;20420;-55
2022/09/24 09:26:15;;;;;;;9.77;7.10;;;16.10;99.90;;;;;;5059379;28;20409;-55
2022/09/24 09:28:44;;;;;;;7.70;6.27;;;16.20;99.90;;;;;;5059030;28;20459;-53
2022/09/24 09:31:19;;;;;;;6.83;5.87;;;16.20;99.90;;;;;;5059112;28;20420;-53
2022/09/24 09:34:00;;;;;;;11.33;6.27;;;16.30;99.90;;;;;;5059098;28;20625;-51
2022/09/24 09:36:42;;;;;;;9.17;7.00;;;16.30;99.90;;;;;;5059131;28;20431;-52
2022/09/24 09:39:22;;;;;;;7.60;6.47;;;16.30;99.90;;;;;;5059031;28;20420;-49
2022/09/24 09:41:55;;;;;;;9.50;7.43;;;16.30;99.90;;;;;;5058718;28;20480;-50
2022/09/24 09:44:26;;;;;;;10.53;7.00;;;16.30;99.90;;;;;;5059067;28;20439;-50
2022/09/24 09:46:59;;;;;;;11.20;7.70;;;16.30;99.90;;;;;;5059022;28;20455;-49
2022/09/24 09:49:31;;;;;;;10.83;6.33;;;16.40;99.90;;;;;;5058720;28;20432;-49
2022/09/24 09:52:01;;;;;;;8.80;6.23;;;16.50;99.90;;;;;;5059102;28;20444;-50
2022/09/24 09:54:37;;;;;;;7.40;5.57;;;16.60;99.90;;;;;;5058256;28;20428;-47
2022/09/24 09:57:05;;;;;;;6.53;5.60;;;16.60;99.90;;;;;;5058288;28;20455;-53
2022/09/24 09:59:38;;;;;;;8.50;5.70;;;16.70;99.90;;;;;;5058382;28;20424;-52
2022/09/24 10:02:11;;;;;;;9.70;5.50;;;16.80;99.90;;;;;;5058222;28;20506;-51
2022/09/24 10:04:40;;;;;;;6.13;5.10;;;16.90;99.90;;;;;;5058847;28;20437;-55
2022/09/24 10:07:10;;;;;;;7.30;5.20;;;17.00;99.90;;;;;;5058717;28;20441;-53
2022/09/24 10:09:37;;;;;;;9.80;6.23;;;17.00;99.90;;;;;;5059074;28;20443;-52
2022/09/24 10:12:09;;;;;;;8.83;5.53;;;17.10;99.90;;;;;;5058630;28;20486;-53
2022/09/24 10:14:37;;;;;;;6.33;5.40;;;17.20;99.90;;;;;;5058748;28;20447;-50
2022/09/24 10:17:06;;;;;;;6.50;5.57;;;17.30;99.90;;;;;;5058559;28;20425;-52
2022/09/24 10:19:37;;;;;;;5.70;5.13;;;17.40;99.90;;;;;;5058836;28;20455;-48
2022/09/24 10:22:11;;;;;;;7.33;5.97;;;17.50;99.90;;;;;;5058498;28;20937;-50
2022/09/24 10:24:43;;;;;;;7.50;6.37;;;17.50;99.90;;;;;;5058495;28;20459;-46
2022/09/24 10:27:21;;;;;;;7.27;5.67;;;17.50;99.90;;;;;;5058529;28;20429;-51
2022/09/24 10:32:57;;;;;;;7.60;5.70;;;17.60;99.90;;;;;;5017512;28;20430;-50
2022/09/24 10:35:27;;;;;;;6.50;5.67;;;17.50;99.90;;;;;;5049963;28;20476;-50
2022/09/24 10:37:56;;;;;;;7.60;5.20;;;17.60;99.90;;;;;;5056662;28;20551;-54
2022/09/24 10:40:28;;;;;;;8.07;5.87;;;17.50;99.90;;;;;;5055922;28;20468;-53
2022/09/24 10:42:58;;;;;;;8.17;5.93;;;17.50;99.90;;;;;;5056062;28;20456;-50
2022/09/24 10:45:47;;;;;;;7.40;6.17;;;17.60;99.90;;;;;;5055334;28;20478;-48
2022/09/24 10:48:19;;;;;;;8.03;5.90;;;17.60;99.90;;;;;;5055804;28;20456;-46
2022/09/24 10:50:55;;;;;;;6.63;4.80;;;17.60;99.90;;;;;;5056489;28;20475;-51
2022/09/24 10:53:37;;;;;;;6.50;5.43;;;17.60;99.90;;;;;;5056664;28;20451;-52
2022/09/24 10:56:12;;;;;;;10.40;6.00;;;17.60;99.90;;;;;;5055832;28;20472;-48
2022/09/24 10:59:00;;;;;;;7.53;3.90;;;17.70;99.90;;;;;;5056492;28;20434;-50
2022/09/24 11:01:39;;;;;;;7.30;4.87;;;17.70;99.90;;;;;;5056858;28;20495;-56
2022/09/24 11:04:31;;;;;;;7.50;4.90;;;17.70;99.90;;;;;;5057488;28;20424;-48
2022/09/24 11:07:27;;;;;;;6.20;4.70;;;17.80;99.90;;;;;;5056936;28;20471;-52
2022/09/24 11:10:00;;;;;;;5.03;4.50;;;17.90;99.90;;;;;;5056643;28;20444;-51
2022/09/24 11:12:34;;;;;;;4.93;4.43;;;18.00;99.90;;;;;;5057365;28;20436;-53
2022/09/24 11:15:18;;;;;;;5.90;5.37;;;18.10;99.90;;;;;;5057074;28;20455;-48
2022/09/24 11:18:02;;;;;;;7.10;4.93;;;18.20;99.90;;;;;;5057197;28;20428;-52
2022/09/24 11:20:36;;;;;;;5.97;4.57;;;18.30;99.90;;;;;;5056886;28;20472;-47
2022/09/24 11:23:24;;;;;;;5.53;4.97;;;18.50;99.90;;;;;;5057730;28;20428;-57
2022/09/24 11:25:59;;;;;;;9.27;4.77;;;18.60;99.90;;;;;;5056369;28;20458;-57
2022/09/24 11:29:02;;;;;;;8.00;5.53;;;18.70;99.90;;;;;;5057643;28;20501;-54
2022/09/24 11:31:36;;;;;;;11.50;5.20;;;18.80;99.90;;;;;;5053542;28;20495;-48
2022/09/24 11:34:22;;;;;;;8.27;5.17;;;18.90;99.90;;;;;;5057333;28;20412;-52
2022/09/24 11:37:03;;;;;;;8.80;5.20;;;18.90;99.90;;;;;;5056346;28;20472;-47
2022/09/24 11:39:40;;;;;;;5.97;4.07;;;19.00;99.90;;;;;;5056233;28;20452;-48
2022/09/24 11:42:21;;;;;;;5.47;4.27;;;19.00;99.90;;;;;;5055991;28;20510;-51
2022/09/24 11:45:17;;;;;;;4.93;4.40;;;19.00;99.90;;;;;;5055423;28;20439;-56
2022/09/24 11:48:13;;;;;;;6.13;5.00;;;19.00;99.90;;;;;;5055527;28;20724;-49
2022/09/24 11:50:53;;;;;;;6.20;4.40;;;18.90;99.90;;;;;;5054988;28;20448;-52
2022/09/24 11:53:31;;;;;;;6.00;5.03;;;18.90;99.90;;;;;;5055181;28;20516;-51
2022/09/24 11:56:02;;;;;;;5.90;4.50;;;18.80;99.90;;;;;;5054928;28;20487;-53
2022/09/24 11:58:35;;;;;;;7.97;6.10;;;18.70;99.90;;;;;;5054609;28;20508;-53
2022/09/24 12:01:09;;;;;;;5.40;4.70;;;18.70;99.90;;;;;;5055113;28;20464;-50
2022/09/24 12:03:43;;;;;;;6.33;5.17;;;18.60;99.90;;;;;;5055206;28;20492;-51
2022/09/24 12:06:17;;;;;;;7.93;5.43;;;18.60;99.90;;;;;;5054985;28;20472;-51
2022/09/24 12:08:52;;;;;;;7.60;5.30;;;18.60;99.90;;;;;;5055124;28;20467;-50
2022/09/24 12:11:22;;;;;;;5.57;5.00;;;18.50;99.90;;;;;;5054887;28;20439;-50
2022/09/24 12:13:54;;;;;;;5.50;5.00;;;18.50;99.90;;;;;;5054538;28;20440;-54
2022/09/24 12:16:24;;;;;;;6.07;5.07;;;18.40;99.90;;;;;;5054602;28;20464;-52
2022/09/24 12:18:56;;;;;;;8.73;6.10;;;18.40;99.90;;;;;;5054489;28;20428;-48
2022/09/24 12:21:29;;;;;;;8.00;5.20;;;18.30;99.90;;;;;;5054306;28;20876;-50
2022/09/24 12:24:07;;;;;;;11.80;5.07;;;18.20;99.90;;;;;;5054666;28;20428;-50
2022/09/24 12:26:38;;;;;;;6.57;4.67;;;18.20;99.90;;;;;;5054713;28;20458;-54
2022/09/24 12:35:15;;;;;;;5.43;4.30;;;18.20;99.90;;;;;;5054343;28;20424;-52
2022/09/24 12:37:44;;;;;;;4.10;3.70;;;18.30;99.90;;;;;;5054282;28;20400;-55
2022/09/24 12:40:31;;;;;;;5.63;5.10;;;18.40;99.90;;;;;;5053897;28;20443;-53
2022/09/24 12:43:01;;;;;;;5.20;4.70;;;18.40;99.90;;;;;;5054245;28;20480;-54
2022/09/24 12:45:28;;;;;;;7.60;5.50;;;18.50;99.90;;;;;;5054323;28;20439;-51
2022/09/24 12:48:00;;;;;;;13.33;5.30;;;18.60;99.90;;;;;;5053811;28;20444;-50
2022/09/24 12:50:31;;;;;;;8.27;5.00;;;18.60;99.90;;;;;;5053822;28;20461;-50
2022/09/24 12:53:00;;;;;;;6.60;5.17;;;18.60;99.90;;;;;;5054219;28;20424;-49
2022/09/24 12:55:29;;;;;;;5.57;4.73;;;18.60;99.90;;;;;;5053952;28;20504;-50
2022/09/24 12:57:59;;;;;;;6.83;4.97;;;18.60;99.90;;;;;;5053894;28;20454;-53
2022/09/24 13:00:40;;;;;;;7.97;5.50;;;18.60;99.90;;;;;;5054576;28;20458;-52
2022/09/24 13:03:07;;;;;;;6.27;5.57;;;18.60;99.90;;;;;;5054285;28;20468;-54
2022/09/24 13:05:46;;;;;;;6.10;5.50;;;18.60;99.90;;;;;;5053893;28;20448;-53
2022/09/24 13:08:26;;;;;;;10.83;5.67;;;18.50;99.90;;;;;;5054066;28;20448;-54
2022/09/24 13:10:55;;;;;;;6.73;5.50;;;18.50;99.90;;;;;;5054388;28;20454;-51
2022/09/24 13:13:26;;;;;;;6.73;5.13;;;18.50;99.90;;;;;;5055082;28;20489;-53
2022/09/24 13:16:03;;;;;;;6.30;5.17;;;18.40;99.90;;;;;;5054519;28;20582;-56
2022/09/24 13:18:31;;;;;;;8.93;5.30;;;18.50;99.90;;;;;;5054127;28;20409;-53
2022/09/24 13:21:01;;;;;;;9.80;6.07;;;18.50;99.90;;;;;;5054121;28;20468;-50
2022/09/24 13:23:44;;;;;;;6.80;5.30;;;18.60;99.90;;;;;;5053939;28;20472;-51
2022/09/24 13:26:14;;;;;;;9.30;5.53;;;18.60;99.90;;;;;;5054314;28;20504;-50
2022/09/24 13:28:54;;;;;;;5.47;4.57;;;18.70;99.90;;;;;;5054074;28;20772;-49